createdAt,value
2018-12-08T00:02:24.012Z,2.20
2018-12-08T00:04:51.608Z,2.00
2018-12-08T00:07:19.164Z,2.20
2018-12-08T00:09:46.681Z,2.33
2018-12-08T00:12:14.223Z,2.60
2018-12-08T00:14:41.748Z,2.07
2018-12-08T00:17:09.298Z,2.17
2018-12-08T00:19:36.844Z,3.23
2018-12-08T00:22:04.620Z,2.20
2018-12-08T00:24:32.391Z,2.30
2018-12-08T00:26:59.916Z,2.47
2018-12-08T00:29:27.473Z,2.40
2018-12-08T00:31:55.006Z,2.03
2018-12-08T00:34:22.548Z,2.60
2018-12-08T00:36:50.072Z,3.33
2018-12-08T00:39:17.627Z,1.47
2018-12-08T00:41:45.144Z,2.47
2018-12-08T00:44:12.684Z,2.17
2018-12-08T00:46:40.314Z,2.13
2018-12-08T00:49:07.975Z,2.53
2018-12-08T00:51:35.499Z,1.87
2018-12-08T00:54:07.207Z,2.53
2018-12-08T00:56:34.910Z,2.17
2018-12-08T00:59:02.531Z,2.40
2018-12-08T01:01:30.059Z,2.10
2018-12-08T01:03:57.620Z,2.57
2018-12-08T01:06:25.146Z,2.10
2018-12-08T01:08:52.695Z,2.17
2018-12-08T01:11:20.211Z,2.77
2018-12-08T01:13:47.836Z,2.50
2018-12-08T01:16:15.432Z,2.37
2018-12-08T01:18:42.990Z,2.60
2018-12-08T01:21:10.512Z,2.10
2018-12-08T01:23:38.054Z,3.00
2018-12-08T01:26:05.575Z,2.20
2018-12-08T01:28:33.131Z,2.87
2018-12-08T01:31:00.651Z,1.83
2018-12-08T01:33:28.210Z,2.23
2018-12-08T01:35:55.740Z,2.17
2018-12-08T01:38:23.287Z,2.30
2018-12-08T01:40:50.799Z,2.30
2018-12-08T01:43:18.346Z,2.30
2018-12-08T01:45:45.867Z,1.90
2018-12-08T01:48:13.424Z,2.47
2018-12-08T01:50:40.944Z,2.43
2018-12-08T01:53:08.491Z,1.90
2018-12-08T01:55:36.011Z,1.80
2018-12-08T01:58:03.631Z,2.00
2018-12-08T02:00:31.256Z,2.10
2018-12-08T02:02:58.780Z,2.20
2018-12-08T02:05:26.347Z,2.70
2018-12-08T02:07:53.947Z,2.10
2018-12-08T02:10:21.500Z,2.00
2018-12-08T02:12:49.021Z,2.27
2018-12-08T02:15:16.575Z,1.97
2018-12-08T02:17:44.116Z,1.73
2018-12-08T02:20:11.671Z,1.53
2018-12-08T02:22:39.192Z,1.93
2018-12-08T02:25:06.895Z,1.80
2018-12-08T02:27:34.431Z,1.80
2018-12-08T02:30:02.002Z,1.93
2018-12-08T02:32:29.628Z,1.97
2018-12-08T02:34:57.181Z,2.20
2018-12-08T02:37:24.792Z,1.77
2018-12-08T02:39:52.351Z,1.80
2018-12-08T02:42:19.867Z,1.57
2018-12-08T02:44:47.415Z,2.00
2018-12-08T02:47:14.930Z,2.07
2018-12-08T02:49:42.476Z,2.30
2018-12-08T02:52:09.998Z,2.57
2018-12-08T02:54:37.548Z,2.23
2018-12-08T02:57:05.155Z,2.00
2018-12-08T02:59:32.707Z,2.00
2018-12-08T03:02:00.230Z,2.10
2018-12-08T03:04:27.770Z,1.90
2018-12-08T03:06:55.315Z,1.70
2018-12-08T03:09:22.857Z,1.73
2018-12-08T03:11:50.371Z,2.10
2018-12-08T03:14:17.913Z,1.80
2018-12-08T03:16:45.435Z,1.90
2018-12-08T03:19:12.983Z,2.07
2018-12-08T03:21:40.509Z,1.50
2018-12-08T03:24:08.056Z,1.93
2018-12-08T03:26:35.576Z,1.90
2018-12-08T03:29:03.125Z,2.17
2018-12-08T03:31:30.647Z,2.27
2018-12-08T03:33:58.196Z,1.90
2018-12-08T03:36:25.712Z,2.13
2018-12-08T03:38:53.347Z,2.00
2018-12-08T03:41:20.870Z,1.73
2018-12-08T03:43:48.388Z,1.93
2018-12-08T03:46:15.935Z,1.83
2018-12-08T03:48:43.455Z,2.53
2018-12-08T03:51:10.999Z,1.80
2018-12-08T03:53:38.516Z,1.93
2018-12-08T03:56:06.056Z,2.00
2018-12-08T03:58:33.575Z,2.03
2018-12-08T04:01:01.123Z,2.40
2018-12-08T04:03:28.639Z,1.93
2018-12-08T04:05:56.183Z,1.90
2018-12-08T04:08:23.695Z,1.60
2018-12-08T04:10:51.246Z,1.60
2018-12-08T04:13:18.776Z,1.73
2018-12-08T04:15:46.404Z,2.10
2018-12-08T04:18:13.918Z,1.83
2018-12-08T04:20:41.455Z,2.10
2018-12-08T04:23:08.968Z,1.70
2018-12-08T04:25:36.508Z,1.60
2018-12-08T04:28:04.033Z,1.80
2018-12-08T04:30:31.582Z,2.10
2018-12-08T04:32:59.095Z,1.80
2018-12-08T04:35:26.641Z,1.60
2018-12-08T04:37:54.172Z,2.20
2018-12-08T04:40:21.715Z,2.00
2018-12-08T04:42:49.231Z,2.03
2018-12-08T04:45:16.773Z,2.00
2018-12-08T04:47:44.287Z,1.80
2018-12-08T04:50:11.833Z,2.17
2018-12-08T04:52:39.347Z,1.80
2018-12-08T04:55:06.905Z,2.43
2018-12-08T04:57:34.427Z,2.80
2018-12-08T05:00:02.048Z,2.23
2018-12-08T05:02:29.572Z,2.00
2018-12-08T05:04:57.132Z,2.40
2018-12-08T05:07:24.652Z,1.77
2018-12-08T05:09:52.199Z,1.90
2018-12-08T05:12:19.723Z,2.47
2018-12-08T05:14:47.283Z,2.10
2018-12-08T05:17:14.798Z,2.20
2018-12-08T05:19:42.319Z,2.17
2018-12-08T05:22:09.863Z,2.20
2018-12-08T05:24:37.384Z,2.30
2018-12-08T05:27:04.931Z,2.37
2018-12-08T05:29:32.451Z,1.93
2018-12-08T05:32:00.012Z,2.40
2018-12-08T05:34:27.540Z,2.33
2018-12-08T05:36:55.084Z,1.97
2018-12-08T05:39:22.602Z,1.97
2018-12-08T05:41:50.141Z,1.80
2018-12-08T05:44:17.668Z,1.87
2018-12-08T05:46:45.224Z,2.37
2018-12-08T05:49:12.747Z,2.07
2018-12-08T05:51:40.299Z,2.13
2018-12-08T05:54:07.836Z,2.37
2018-12-08T05:56:35.380Z,2.00
2018-12-08T05:59:02.903Z,2.93
2018-12-08T06:01:30.459Z,2.20
2018-12-08T06:03:57.983Z,2.30
2018-12-08T06:06:25.532Z,2.40
2018-12-08T06:08:53.052Z,2.30
2018-12-08T06:11:20.603Z,1.93
2018-12-08T06:13:48.119Z,2.30
2018-12-08T06:16:15.667Z,1.80
2018-12-08T06:18:42.988Z,2.53
2018-12-08T06:21:10.530Z,2.17
2018-12-08T06:23:38.043Z,2.10
2018-12-08T06:26:07.048Z,2.70
2018-12-08T06:28:34.647Z,2.37
2018-12-08T06:31:02.187Z,1.90
2018-12-08T06:33:29.713Z,2.40
2018-12-08T06:35:57.352Z,2.60
2018-12-08T06:38:25.476Z,2.60
2018-12-08T06:40:53.175Z,2.10
2018-12-08T06:43:20.691Z,1.93
2018-12-08T06:45:48.213Z,2.47
2018-12-08T06:48:15.768Z,2.13
2018-12-08T06:50:43.297Z,2.30
2018-12-08T06:53:10.843Z,2.47
2018-12-08T06:55:38.355Z,2.50
2018-12-08T06:58:05.902Z,2.27
2018-12-08T07:00:33.503Z,2.90
2018-12-08T07:03:01.049Z,2.30
2018-12-08T07:05:28.572Z,3.00
2018-12-08T07:07:56.119Z,2.77
2018-12-08T07:10:23.719Z,2.10
2018-12-08T07:12:51.262Z,2.10
2018-12-08T07:15:18.781Z,2.07
2018-12-08T07:17:46.323Z,2.97
2018-12-08T07:20:13.847Z,2.47
2018-12-08T07:22:41.391Z,1.77
2018-12-08T07:25:08.911Z,2.90
2018-12-08T07:27:36.454Z,2.63
2018-12-08T07:30:06.381Z,2.80
2018-12-08T07:32:38.873Z,2.23
2018-12-08T07:35:03.930Z,2.40
2018-12-08T07:37:31.480Z,2.03
2018-12-08T07:39:58.997Z,2.80
2018-12-08T07:42:26.546Z,2.80
2018-12-08T07:44:54.063Z,2.50
2018-12-08T07:47:21.607Z,2.00
2018-12-08T07:49:49.132Z,1.87
2018-12-08T07:52:16.676Z,2.20
2018-12-08T07:54:44.212Z,1.80
2018-12-08T07:57:11.772Z,1.83
2018-12-08T07:59:39.295Z,1.97
2018-12-08T08:02:06.919Z,2.03
2018-12-08T08:04:34.433Z,1.80
2018-12-08T08:07:02.052Z,1.70
2018-12-08T08:09:29.571Z,1.93
2018-12-08T08:11:57.119Z,1.87
2018-12-08T08:14:24.737Z,1.90
2018-12-08T08:16:52.264Z,2.33
2018-12-08T08:19:19.808Z,1.97
2018-12-08T08:21:47.327Z,2.10
2018-12-08T08:24:14.868Z,2.10
2018-12-08T08:26:42.564Z,1.90
2018-12-08T08:29:10.150Z,2.33
2018-12-08T08:31:37.662Z,2.07
2018-12-08T08:34:05.222Z,2.40
2018-12-08T08:36:32.744Z,2.47
2018-12-08T08:39:00.287Z,3.00
2018-12-08T08:41:27.810Z,2.70
2018-12-08T08:43:56.256Z,2.87
2018-12-08T08:46:24.080Z,2.40
2018-12-08T08:48:51.623Z,2.43
2018-12-08T08:51:19.151Z,2.43
2018-12-08T08:53:46.698Z,2.70
2018-12-08T08:56:14.230Z,2.87
2018-12-08T08:58:41.791Z,2.40
2018-12-08T09:01:09.312Z,3.13
2018-12-08T09:03:36.859Z,3.00
2018-12-08T09:06:04.380Z,2.53
2018-12-08T09:08:31.944Z,2.53
2018-12-08T09:10:59.464Z,2.40
2018-12-08T09:13:27.016Z,2.60
2018-12-08T09:15:54.531Z,2.90
2018-12-08T09:18:22.076Z,2.20
2018-12-08T09:20:49.595Z,2.87
2018-12-08T09:23:17.145Z,2.43
2018-12-08T09:25:44.665Z,2.23
2018-12-08T09:28:12.209Z,2.20
2018-12-08T09:30:39.726Z,2.27
2018-12-08T09:33:07.268Z,1.87
2018-12-08T09:35:34.795Z,2.10
2018-12-08T09:38:02.344Z,2.10
2018-12-08T09:40:29.864Z,5.47
2018-12-08T09:42:57.412Z,3.20
2018-12-08T09:45:24.941Z,3.13
2018-12-08T09:47:52.487Z,2.90
2018-12-08T09:50:20.010Z,2.40
2018-12-08T09:52:51.518Z,2.47
2018-12-08T09:55:19.059Z,2.47
2018-12-08T09:57:46.585Z,2.17
2018-12-08T10:00:15.514Z,3.10
2018-12-08T10:02:43.031Z,2.43
2018-12-08T10:05:10.580Z,3.10
2018-12-08T10:07:38.104Z,2.30
2018-12-08T10:10:07.416Z,2.23
2018-12-08T10:12:35.010Z,2.37
2018-12-08T10:15:02.942Z,2.37
2018-12-08T10:17:33.557Z,2.70
2018-12-08T10:20:01.684Z,2.10
2018-12-08T10:22:29.217Z,2.40
2018-12-08T10:24:56.761Z,2.30
2018-12-08T10:27:24.279Z,2.23
2018-12-08T10:29:51.823Z,2.67
2018-12-08T10:32:19.422Z,2.77
2018-12-08T10:34:46.973Z,2.77
2018-12-08T10:37:14.496Z,2.30
2018-12-08T10:39:42.120Z,2.53
2018-12-08T10:42:09.643Z,3.13
2018-12-08T10:44:37.191Z,1.97
2018-12-08T10:47:04.788Z,2.33
2018-12-08T10:49:32.331Z,1.97
2018-12-08T10:51:59.860Z,2.93
2018-12-08T10:54:27.416Z,2.00
2018-12-08T10:56:54.936Z,2.77
2018-12-08T10:59:22.489Z,2.43
2018-12-08T11:01:57.944Z,2.30
2018-12-08T11:04:25.494Z,2.13
2018-12-08T11:06:53.135Z,2.23
2018-12-08T11:09:20.682Z,1.83
2018-12-08T11:11:48.206Z,2.67
2018-12-08T11:14:15.756Z,2.07
2018-12-08T11:16:43.280Z,1.97
2018-12-08T11:19:10.824Z,2.27
2018-12-08T11:21:38.626Z,2.20
2018-12-08T11:24:06.170Z,2.37
2018-12-08T11:26:33.712Z,2.13
2018-12-08T11:29:01.239Z,2.53
2018-12-08T11:31:28.780Z,2.20
2018-12-08T11:33:56.291Z,1.70
2018-12-08T11:36:23.842Z,2.00
2018-12-08T11:38:51.366Z,2.47
2018-12-08T11:41:18.902Z,1.90
2018-12-08T11:43:46.419Z,2.20
2018-12-08T11:46:13.972Z,2.43
2018-12-08T11:48:41.491Z,2.23
2018-12-08T11:51:09.054Z,1.77
2018-12-08T11:53:36.591Z,2.77
2018-12-08T11:56:04.253Z,2.60
2018-12-08T11:58:31.775Z,2.03
2018-12-08T12:00:59.323Z,1.83
2018-12-08T12:03:26.846Z,1.80
2018-12-08T12:05:54.399Z,2.00
2018-12-08T12:08:21.924Z,1.93
2018-12-08T12:10:49.549Z,2.23
2018-12-08T12:13:17.068Z,1.90
2018-12-08T12:15:44.627Z,2.27
2018-12-08T12:18:12.147Z,3.13
2018-12-08T12:20:39.687Z,2.40
2018-12-08T12:23:07.212Z,1.93
2018-12-08T12:25:34.759Z,2.07
2018-12-08T12:28:02.467Z,2.30
2018-12-08T12:30:30.004Z,1.43
2018-12-08T12:32:57.519Z,1.70
2018-12-08T12:35:25.067Z,1.80
2018-12-08T12:37:52.590Z,1.70
2018-12-08T12:40:20.136Z,2.00
2018-12-08T12:42:47.655Z,2.10
2018-12-08T12:45:15.285Z,2.03
2018-12-08T12:47:42.837Z,1.60
2018-12-08T12:50:10.389Z,1.67
2018-12-08T12:52:37.913Z,1.87
2018-12-08T12:55:05.460Z,1.93
2018-12-08T12:57:33.007Z,2.00
2018-12-08T13:00:00.521Z,1.80
2018-12-08T13:02:28.061Z,2.03
2018-12-08T13:04:55.583Z,1.60
2018-12-08T13:07:23.129Z,1.90
2018-12-08T13:09:50.653Z,1.77
2018-12-08T13:12:18.208Z,2.50
2018-12-08T13:14:45.728Z,2.03
2018-12-08T13:17:13.275Z,2.13
2018-12-08T13:19:40.799Z,2.20
2018-12-08T13:22:08.360Z,2.10
2018-12-08T13:24:35.880Z,2.00
2018-12-08T13:27:03.428Z,2.50
2018-12-08T13:29:31.020Z,2.50
2018-12-08T13:31:58.575Z,2.37
2018-12-08T13:34:26.651Z,2.73
2018-12-08T13:36:54.212Z,2.97
2018-12-08T13:39:21.736Z,2.87
2018-12-08T13:41:49.283Z,3.10
2018-12-08T13:44:34.439Z,3.20
2018-12-08T13:47:02.821Z,2.30
2018-12-08T13:49:30.415Z,2.87
2018-12-08T13:51:57.970Z,3.07
2018-12-08T13:54:37.335Z,3.10
2018-12-08T13:57:05.113Z,3.47
2018-12-08T13:59:32.647Z,3.97
2018-12-08T14:02:00.227Z,4.83
2018-12-08T14:04:27.840Z,3.53
2018-12-08T14:06:55.395Z,3.70
2018-12-08T14:09:22.907Z,3.73
2018-12-08T14:11:50.461Z,3.53
2018-12-08T14:14:17.983Z,3.60
2018-12-08T14:16:45.526Z,3.87
2018-12-08T14:19:13.043Z,4.07
2018-12-08T14:21:40.594Z,3.47
2018-12-08T14:24:08.116Z,4.20
2018-12-08T14:26:35.655Z,3.60
2018-12-08T14:29:03.180Z,4.20
2018-12-08T14:31:31.043Z,3.20
2018-12-08T14:33:58.947Z,3.77
2018-12-08T14:36:26.508Z,2.97
2018-12-08T14:38:57.522Z,3.00
2018-12-08T14:41:23.576Z,3.60
2018-12-08T14:43:51.119Z,3.17
2018-12-08T14:46:18.645Z,3.00
2018-12-08T14:48:46.204Z,2.70
2018-12-08T14:51:13.719Z,2.60
2018-12-08T14:53:41.275Z,2.77
2018-12-08T14:56:08.792Z,3.00
2018-12-08T14:58:36.340Z,2.40
2018-12-08T15:01:05.015Z,2.60
2018-12-08T15:03:32.555Z,2.20
2018-12-08T15:06:00.255Z,2.33
2018-12-08T15:08:27.795Z,3.17
2018-12-08T15:10:55.919Z,2.53
2018-12-08T15:13:23.463Z,2.40
2018-12-08T15:15:51.004Z,2.87
2018-12-08T15:18:18.545Z,2.60
2018-12-08T15:20:46.066Z,2.50
2018-12-08T15:23:13.619Z,2.63
2018-12-08T15:25:41.147Z,2.43
2018-12-08T15:28:08.701Z,3.47
2018-12-08T15:30:36.231Z,2.87
2018-12-08T15:33:03.779Z,2.13
2018-12-08T15:35:31.291Z,2.63
2018-12-08T15:37:58.831Z,2.50
2018-12-08T15:40:26.339Z,2.80
2018-12-08T15:42:53.898Z,3.50
2018-12-08T15:45:21.419Z,3.00
2018-12-08T15:47:48.968Z,2.70
2018-12-08T15:50:16.575Z,2.80
2018-12-08T15:52:44.126Z,3.50
2018-12-08T15:55:11.655Z,2.10
2018-12-08T15:57:39.200Z,2.93
2018-12-08T16:00:11.291Z,2.27
2018-12-08T16:02:39.916Z,1.80
2018-12-08T16:05:09.772Z,2.57
2018-12-08T16:07:38.348Z,2.43
2018-12-08T16:10:08.089Z,2.73
2018-12-08T16:12:35.652Z,2.93
2018-12-08T16:15:03.471Z,2.90
2018-12-08T16:17:31.060Z,2.40
2018-12-08T16:19:58.811Z,3.10
2018-12-08T16:22:26.506Z,2.47
2018-12-08T16:24:54.154Z,3.03
2018-12-08T16:27:21.933Z,2.43
2018-12-08T16:29:49.451Z,2.97
2018-12-08T16:32:17.112Z,2.73
2018-12-08T16:34:44.704Z,2.70
2018-12-08T16:37:12.243Z,3.23
2018-12-08T16:39:39.814Z,3.10
2018-12-08T16:42:07.379Z,3.30
2018-12-08T16:44:34.941Z,3.33
2018-12-08T16:47:02.467Z,3.20
2018-12-08T16:49:30.032Z,3.40
2018-12-08T16:51:58.052Z,3.13
2018-12-08T16:54:25.621Z,2.90
2018-12-08T16:56:53.383Z,2.97
2018-12-08T16:59:20.936Z,10.10
2018-12-08T17:01:51.170Z,3.80
2018-12-08T17:04:20.644Z,4.10
2018-12-08T17:06:48.740Z,4.23
2018-12-08T17:09:16.283Z,3.80
2018-12-08T17:11:43.975Z,3.23
2018-12-08T17:14:11.520Z,3.17
2018-12-08T17:16:39.072Z,3.67
2018-12-08T17:19:06.703Z,3.97
2018-12-08T17:21:34.258Z,3.57
2018-12-08T17:24:01.823Z,4.90
2018-12-08T17:26:29.343Z,3.27
2018-12-08T17:28:57.006Z,3.10
2018-12-08T17:31:24.652Z,3.20
2018-12-08T17:33:52.197Z,2.63
2018-12-08T17:36:19.718Z,2.97
2018-12-08T17:38:47.268Z,3.00
2018-12-08T17:41:14.792Z,3.17
2018-12-08T17:43:42.346Z,2.80
2018-12-08T17:46:09.868Z,2.30
2018-12-08T17:48:37.510Z,3.30
2018-12-08T17:51:05.140Z,2.87
2018-12-08T17:53:32.798Z,2.70
2018-12-08T17:56:00.319Z,2.73
2018-12-08T17:58:27.976Z,2.73
2018-12-08T18:00:55.615Z,2.60
2018-12-08T18:03:23.167Z,3.57
2018-12-08T18:05:50.687Z,2.77
2018-12-08T18:08:18.228Z,2.20
2018-12-08T18:10:45.756Z,2.90
2018-12-08T18:13:13.307Z,2.50
2018-12-08T18:15:40.826Z,2.37
2018-12-08T18:18:08.370Z,2.43
2018-12-08T18:20:35.916Z,2.30
2018-12-08T18:23:03.437Z,2.40
2018-12-08T18:25:30.980Z,2.27
2018-12-08T18:27:58.495Z,2.47
2018-12-08T18:30:26.040Z,3.00
2018-12-08T18:32:53.567Z,2.20
2018-12-08T18:35:21.199Z,2.03
2018-12-08T18:37:48.715Z,2.40
2018-12-08T18:40:16.258Z,2.20
2018-12-08T18:42:43.776Z,2.10
2018-12-08T18:45:11.341Z,2.80
2018-12-08T18:47:38.863Z,2.60
2018-12-08T18:50:08.171Z,2.23
2018-12-08T18:52:35.696Z,2.30
2018-12-08T18:55:03.396Z,2.37
2018-12-08T18:57:30.923Z,2.13
2018-12-08T18:59:58.464Z,2.47
2018-12-08T19:02:26.058Z,2.50
2018-12-08T19:04:53.603Z,1.90
2018-12-08T19:07:21.119Z,1.90
2018-12-08T19:09:48.663Z,2.03
2018-12-08T19:12:16.183Z,2.07
2018-12-08T19:14:43.731Z,2.03
2018-12-08T19:17:11.250Z,1.93
2018-12-08T19:19:38.794Z,1.80
2018-12-08T19:22:06.319Z,1.60
2018-12-08T19:24:33.859Z,1.63
2018-12-08T19:27:01.382Z,1.57
2018-12-08T19:29:28.927Z,1.73
2018-12-08T19:31:56.446Z,1.70
2018-12-08T19:34:23.996Z,1.50
2018-12-08T19:36:51.508Z,1.73
2018-12-08T19:39:19.052Z,1.83
2018-12-08T19:41:46.563Z,1.47
2018-12-08T19:44:14.191Z,2.20
2018-12-08T19:46:41.743Z,1.53
2018-12-08T19:49:09.299Z,1.80
2018-12-08T19:51:36.818Z,2.27
2018-12-08T19:54:04.363Z,1.37
2018-12-08T19:56:31.882Z,2.10
2018-12-08T19:58:59.400Z,1.70
2018-12-08T20:01:26.950Z,2.00
2018-12-08T20:03:54.459Z,1.60
2018-12-08T20:06:22.008Z,1.90
2018-12-08T20:08:49.520Z,1.83
2018-12-08T20:11:17.063Z,1.83
2018-12-08T20:13:44.580Z,1.50
2018-12-08T20:16:12.120Z,1.83
2018-12-08T20:18:39.635Z,1.77
2018-12-08T20:21:07.269Z,1.00
2018-12-08T20:23:34.791Z,1.10
2018-12-08T20:26:02.331Z,1.33
2018-12-08T20:28:29.847Z,0.80
2018-12-08T20:30:57.511Z,1.20
2018-12-08T20:33:25.136Z,0.83
2018-12-08T20:35:52.690Z,1.47
2018-12-08T20:38:20.204Z,1.10
2018-12-08T20:40:47.753Z,1.00
2018-12-08T20:43:15.270Z,0.83
2018-12-08T20:45:42.820Z,1.17
2018-12-08T20:48:10.335Z,1.33
2018-12-08T20:50:37.872Z,0.70
2018-12-08T20:53:05.395Z,1.23
2018-12-08T20:55:32.943Z,0.87
2018-12-08T20:58:00.463Z,0.83
2018-12-08T21:00:28.114Z,1.10
2018-12-08T21:02:55.650Z,1.00
2018-12-08T21:05:23.187Z,0.83
2018-12-08T21:07:50.712Z,0.80
2018-12-08T21:10:18.358Z,1.07
2018-12-08T21:12:45.888Z,0.67
2018-12-08T21:15:13.507Z,1.20
2018-12-08T21:17:41.104Z,0.80
2018-12-08T21:20:09.646Z,0.60
2018-12-08T21:22:37.163Z,0.53
2018-12-08T21:25:04.969Z,0.57
2018-12-08T21:27:32.483Z,0.60
2018-12-08T21:30:00.024Z,0.40
2018-12-08T21:32:27.540Z,0.80
2018-12-08T21:34:55.097Z,0.30
2018-12-08T21:37:22.612Z,0.60
2018-12-08T21:39:50.168Z,0.60
2018-12-08T21:42:17.722Z,0.67
2018-12-08T21:44:45.235Z,0.47
2018-12-08T21:47:12.777Z,0.30
2018-12-08T21:49:40.300Z,0.20
2018-12-08T21:52:07.855Z,0.50
2018-12-08T21:54:35.379Z,0.43
2018-12-08T21:57:02.919Z,0.30
2018-12-08T21:59:30.431Z,0.40
2018-12-08T22:01:57.970Z,0.30
2018-12-08T22:04:25.483Z,0.30
2018-12-08T22:06:53.015Z,0.30
2018-12-08T22:09:20.541Z,0.37
2018-12-08T22:11:48.084Z,0.20
2018-12-08T22:14:15.603Z,0.23
2018-12-08T22:16:43.142Z,0.40
2018-12-08T22:19:10.670Z,0.20
2018-12-08T22:21:38.211Z,0.30
2018-12-08T22:24:05.728Z,0.20
2018-12-08T22:26:33.286Z,0.30
2018-12-08T22:29:00.803Z,0.53
2018-12-08T22:31:28.343Z,0.40
2018-12-08T22:33:55.856Z,0.30
2018-12-08T22:36:23.473Z,0.60
2018-12-08T22:38:51.000Z,0.33
2018-12-08T22:41:18.615Z,0.43
2018-12-08T22:43:46.136Z,0.30
2018-12-08T22:46:13.680Z,0.20
2018-12-08T22:48:41.200Z,0.47
2018-12-08T22:51:08.745Z,0.40
2018-12-08T22:53:36.260Z,0.40
2018-12-08T22:56:03.801Z,0.40
2018-12-08T22:58:31.325Z,0.87
2018-12-08T23:00:58.884Z,0.60
2018-12-08T23:03:26.400Z,0.70
2018-12-08T23:05:53.951Z,0.90
2018-12-08T23:08:21.465Z,1.00
2018-12-08T23:10:49.026Z,1.20
2018-12-08T23:13:16.536Z,1.20
2018-12-08T23:15:44.051Z,1.13
2018-12-08T23:18:11.594Z,1.00
2018-12-08T23:20:39.104Z,1.00
2018-12-08T23:23:06.724Z,1.20
2018-12-08T23:25:34.235Z,1.17
2018-12-08T23:28:01.774Z,1.13
2018-12-08T23:30:29.286Z,1.13
2018-12-08T23:32:56.822Z,1.50
2018-12-08T23:35:24.335Z,1.70
2018-12-08T23:37:51.875Z,2.07
2018-12-08T23:40:19.395Z,1.70
2018-12-08T23:42:46.931Z,1.80
2018-12-08T23:45:14.448Z,2.00
2018-12-08T23:47:41.988Z,2.07
2018-12-08T23:50:09.596Z,2.13
2018-12-08T23:52:37.139Z,2.17
2018-12-08T23:55:05.004Z,2.00
2018-12-08T23:57:32.555Z,2.30
